Logo AVAMET
Benvolgut visitant, si us plau, ingressa Recuperar contrasenya
AVAMET paisatges

Quart de Poblet

Dades diàries. Acumulats / Últims 30 dies disponibles

Data Temperatura (°C) Humitat rel. (%) Pressió rel. (hPa) Vent (km/h) Precipitació
Mínima Mitjana Màxima Amplitud
tèrmica
Mínima Mitjana Màxima Mínima Mitjana Màxima Predom. Mitjana Ràfega
màxima
Total
(mm)
Índex-n
Mínima Mitjana Màxima Mínima Mitjana Màxima n
0 a 1
P0 max
mm 5'
Dades mensuals acumulades fins l'últim dia disponible
03/2020 6,2 10,8 15,7 14,3 11,8 18,3 25,1 18,9 24 69 94 998 1.017 1.029   7,1 77,2 56,0
Dades anuals acumulades fins l'últim dia disponible
2020 1,5 8,9 15,7 13,1 9,2 18,4 26,9 25,4 17 71 95 998 1.023 1.035   5,2 77,2 165,0
Últims 30 dies disponibles
28-03-2020 6,2     11,6     16,9 10,7 44 66 87 1.017 1.018 1.019 W 4,7 20,9 0,0
27-03-2020 6,5     9,1     12,1 5,6 71 81 88 1.012 1.014 1.017 NW 3,5 24,1 2,2 0,20
26-03-2020 6,3     10,8     16,8 10,5 36 70 90 1.007 1.010 1.014 NW 6,3 48,3 0,0
25-03-2020 8,8     10,1     11,8 3,0 74 80 86 1.015 1.017 1.018 NNE 4,5 30,6 0,6
24-03-2020 11,8     13,6     14,3 2,5 70 79 88 1.016 1.017 1.019 NNE 17,4 51,5 0,0
23-03-2020 11,8     13,7     16,3 4,5 71 87 92 1.014 1.016 1.018 NNE 8,2 30,6 11,2 0,51 4,00
22-03-2020 10,6     12,8     15,7 5,1 72 84 92 1.011 1.013 1.015 NNE 4,7 24,1 14,2 0,53 1,80
21-03-2020 10,4     12,7     14,4 4,0 73 82 89 1.012 1.014 1.017 NNE 2,9 17,7 2,4 0,32 1,00
20-03-2020 12,4     13,5     15,1 2,7 73 82 89 1.017 1.019 1.021 NNE 7,1 27,4 0,4
19-03-2020 10,7     13,3     16,1 5,4 74 83 90 1.021 1.023 1.026 NNE 4,5 22,5 0,0
18-03-2020 11,4     13,9     16,8 5,4 69 81 88 1.025 1.027 1.029 NE 5,1 25,7 0,0
17-03-2020 9,9     12,4     14,6 4,7 84 91 94 1.020 1.024 1.029 NNE 7,2 40,2 20,2 0,42 0,90
16-03-2020 9,7     12,2     14,8 5,1 72 83 88 1.011 1.014 1.020 W 6,6 32,2 4,8 0,15 0,40
15-03-2020 11,1     14,6     18,8 7,7 55 79 88 1.014 1.017 1.021 ENE 4,5 22,5 0,0
14-03-2020 10,6     14,8     19,9 9,3 58 76 86 1.019 1.020 1.022 ENE 3,2 17,7 0,0
13-03-2020 12,2     14,8     18,3 6,1 64 80 91 1.018 1.020 1.021 NNE 4,7 30,6 0,0
12-03-2020 11,2     15,5     20,7 9,5 57 75 90 1.017 1.019 1.022 NE 2,4 17,7 0,0
11-03-2020 10,4     16,6     24,1 13,7 39 64 78 1.022 1.023 1.023 NE 2,6 19,3 0,0
10-03-2020 11,4     16,2     19,9 8,5 37 52 67 1.022 1.024 1.026 E 4,0 19,3 0,0
09-03-2020 9,6     16,2     22,9 13,3 27 49 76 1.020 1.021 1.024 WNW 4,8 29,0 0,0
08-03-2020 9,2     14,9     23,1 13,9 26 57 72 1.020 1.022 1.024 W 4,5 27,4 0,0
07-03-2020 10,1     13,9     20,6 10,5 34 45 66 1.020 1.022 1.024 W 7,9 37,0 0,0
06-03-2020 11,7     14,7     18,7 7,0 24 42 61 1.012 1.014 1.021 W 12,2 56,3 0,0
05-03-2020 15,6     18,6     22,3 6,7 35 51 64 1.007 1.011 1.016 SW 12,4 54,7 0,0
04-03-2020 15,7     19,9     25,1 9,4 39 55 69 1.015 1.016 1.018 SW 9,3 37,0 0,0
03-03-2020 10,2     15,3     20,6 10,4 41 50 59 1.010 1.014 1.017 W 13,4 77,2 0,0
02-03-2020 11,4     16,8     20,8 9,4 32 48 60 998 1.006 1.016 W 16,9 70,8 0,0
01-03-2020 14,8     18,1     21,7 6,9 40 51 61 1.010 1.012 1.015 SW 11,9 45,1 0,0
29-02-2020 8,9     18,9     23,6 14,7 31 47 76 1.010 1.012 1.014 SO 11,5 46,7 0,0
28-02-2020 12,4     16,5     23,3 10,9 30 47 71 1.019 1.021 1.022 W 4,7 22,5 0,0
Últims 13 mesos disponibles
02/2020 6,1 9,5 13,3 14,5 14,0 20,8 26,9 20,8 46 69 87 1.012 1.025 1.033 W 3,9 46,7 1,4
01/2020 1,5 6,7 14,4 10,8 9,2 16,1 22,2 20,7 55 74 91 1.018 1.025 1.032 W 4,8 69,2 107,6
12/2019 5,1 10,2 17,4 13,6 12,7 18,1 24,7 19,6 50 69 91 1.002 1.019 1.033 W 6,1 83,7 85,2
11/2019 4,9 11,9 21,1 15,7 15,9 20,0 28,9 24,0 41 55 78 998 1.010 1.018 SW 8,3 54,7 5,0
10/2019 11,2 16,0 20,7 20,3 16,2 25,6 35,2 24,0 41 67 83 1.007 1.016 1.022 W 4,2 38,6 26,4
09/2019 15,7 20,1 23,7 23,9 21,1 28,1 34,4 18,7 42 70 81 1.010 1.017 1.025 W 5,4 51,5 170,2
08/2019 18,4 22,5 27,1 26,7 27,1 31,2 41,5 23,1 42 68 78 1.010 1.016 1.020 ENE 5,3 48,3 8,6
07/2019 21,6 22,7 25,0 27,1 28,0 31,6 37,6 16,0 49 64 77 1.005 1.014 1.021 ENE 5,5 40,2 11,4
06/2019 13,2 18,2 22,8 23,0 21,9 27,6 36,4 23,2 37 62 78 1.008 1.015 1.022 NNE 5,8 51,5 0,0
05/2019 9,2 14,6 20,7 18,9 18,9 23,5 32,7 23,5 47 65 84 1.005 1.015 1.024 W 5,7 49,9 30,8
04/2019 8,6 11,4 13,9 15,5 15,3 20,2 30,0 21,4 42 65 93 999 1.013 1.025 SW 7,3 61,2 77,2
03/2019 6,5 9,5 15,8 14,6 12,7 20,3 29,3 22,8 41 57 85 1.010 1.023 1.029 W 5,4 46,7 22,0
02/2019 3,4 6,8 10,8 12,1 12,3 18,3 26,4 23,0 35 62 76 994 1.025 1.033 W 5,2 62,8 0,0
Tots els anys disponibles
2019 1,6 14,2 27,1 18,6 12,3 23,5 41,5 39,9 35 63 93 994 1.017 1.033 W 5,8 83,7 437,0
2017
Temperatura (°C)
Humitat relativa (%)
Velocitat del vent i ràfega màxima (km/h)
Direcció del vent (°)
Pressió (hPa)
Precipitació (mm)
Nota sobre les dades: s'avisa a l'usuari de la provisionalitat i no oficialitat d'aquestes dades
Logo AVAMET blanc
Web allotjada a Sollutia
Llicència de Creative CommonsLa web d'AVAMET i els seus continguts estan subjectes a una llicència de
Reconeixement - No Comercial - Compartir igual
Últimes estacions:  Altea - Com. Regants (Soci), Almoines (Inforatge), Beniparrell (Inforatge), Albal (Inforatge), Almussafes - Parc Industrial (Inforatge), La Vilavella (Soci), la Serratella (soci) - - -